Time;durP1;ratioP1;P1;durP2;ratioP2;P2;SDS_P1;SDS_P2;PMS_P1;PMS_P2;Temp;Humidity;BMP_temperature;BMP_pressure;BME280_temperature;BME280_humidity;BME280_pressure;Samples;Min_cycle;Max_cycle;Signal;HPM_P1;HPM_P2
2024/01/08 00:01:29;;;;;;;7.30;4.90;;;;;;;;;;5000394;28;20210;-76
2024/01/08 00:03:55;;;;;;;10.47;5.57;;;;;;;;;;5005390;28;20197;-76
2024/01/08 00:06:20;;;;;;;9.27;5.23;;;;;;;;;;5004182;28;20340;-76
2024/01/08 00:08:46;;;;;;;8.47;5.80;;;;;;;;;;5004261;28;20699;-76
2024/01/08 00:11:11;;;;;;;8.73;5.30;;;;;;;;;;4997199;28;20199;-76
2024/01/08 00:13:36;;;;;;;7.87;5.20;;;;;;;;;;5005974;28;20453;-76
2024/01/08 00:16:02;;;;;;;7.83;5.03;;;;;;;;;;5001016;28;20210;-76
2024/01/08 00:18:30;;;;;;;9.17;4.80;;;;;;;;;;5017780;28;20769;-76
2024/01/08 00:20:56;;;;;;;9.27;5.40;;;;;;;;;;5006392;28;20777;-75
2024/01/08 00:23:23;;;;;;;8.00;5.23;;;;;;;;;;4989941;28;20203;-76
2024/01/08 00:25:48;;;;;;;7.40;5.20;;;;;;;;;;5000587;28;20522;-76
2024/01/08 00:28:14;;;;;;;7.87;5.30;;;;;;;;;;5001397;28;20409;-76
2024/01/08 00:30:39;;;;;;;8.63;5.10;;;;;;;;;;4999339;28;20439;-76
2024/01/08 00:33:05;;;;;;;8.43;5.73;;;;;;;;;;4996427;28;20644;-76
2024/01/08 00:35:30;;;;;;;8.23;5.37;;;;;;;;;;5003376;28;20287;-75
2024/01/08 00:37:56;;;;;;;9.97;5.93;;;;;;;;;;5002648;28;20210;-76
2024/01/08 00:40:21;;;;;;;10.40;5.80;;;;;;;;;;5002969;28;20247;-76
2024/01/08 00:42:47;;;;;;;8.67;5.40;;;;;;;;;;5026082;28;20219;-76
2024/01/08 00:45:12;;;;;;;12.50;6.00;;;;;;;;;;4998219;28;20282;-76
2024/01/08 00:47:39;;;;;;;9.80;5.80;;;;;;;;;;5007448;28;20191;-76
2024/01/08 00:50:05;;;;;;;7.93;5.40;;;;;;;;;;5011985;28;20183;-75
2024/01/08 00:52:31;;;;;;;8.03;5.00;;;;;;;;;;4993653;28;20257;-75
2024/01/08 00:55:04;;;;;;;10.53;5.87;;;;;;;;;;4993756;28;20190;-76
2024/01/08 00:57:33;;;;;;;11.20;5.73;;;;;;;;;;5002274;28;20697;-76
2024/01/08 00:59:58;;;;;;;7.33;5.30;;;;;;;;;;5006524;28;20183;-76
2024/01/08 01:02:24;;;;;;;8.57;5.23;;;;;;;;;;5009548;28;20194;-76
2024/01/08 01:04:49;;;;;;;9.23;5.73;;;;;;;;;;5010363;28;20187;-75
2024/01/08 01:07:15;;;;;;;8.77;5.60;;;;;;;;;;5009806;28;20229;-75
2024/01/08 01:09:40;;;;;;;9.27;5.37;;;;;;;;;;5015909;28;20281;-75
2024/01/08 01:12:06;;;;;;;8.93;5.73;;;;;;;;;;5007915;28;20187;-75
2024/01/08 01:14:31;;;;;;;10.43;5.37;;;;;;;;;;5008012;28;20206;-75
2024/01/08 01:16:57;;;;;;;10.90;5.80;;;;;;;;;;5007803;28;20179;-75
2024/01/08 01:19:22;;;;;;;9.03;5.43;;;;;;;;;;5007550;28;20245;-75
2024/01/08 01:21:48;;;;;;;11.17;5.30;;;;;;;;;;5007448;28;20222;-75
2024/01/08 01:24:13;;;;;;;9.53;5.93;;;;;;;;;;4984445;28;20194;-75
2024/01/08 01:26:38;;;;;;;9.40;5.47;;;;;;;;;;5005177;28;20286;-76
2024/01/08 01:29:04;;;;;;;10.13;5.97;;;;;;;;;;5008604;28;20206;-76
2024/01/08 01:31:31;;;;;;;8.83;5.37;;;;;;;;;;5009975;28;20198;-75
2024/01/08 01:33:56;;;;;;;9.83;5.77;;;;;;;;;;5008779;28;20268;-75
2024/01/08 01:36:22;;;;;;;10.97;5.70;;;;;;;;;;5008566;28;20253;-75
2024/01/08 01:38:47;;;;;;;10.73;5.60;;;;;;;;;;5009620;28;20187;-75
2024/01/08 01:41:13;;;;;;;11.77;5.80;;;;;;;;;;5010061;28;20182;-75
2024/01/08 01:43:38;;;;;;;7.47;5.20;;;;;;;;;;5010352;28;20186;-75
2024/01/08 01:46:07;;;;;;;10.57;5.50;;;;;;;;;;5001236;28;20342;-75
2024/01/08 01:48:33;;;;;;;11.90;5.43;;;;;;;;;;4979835;28;20381;-75
2024/01/08 01:51:00;;;;;;;11.10;5.67;;;;;;;;;;5010268;28;20319;-75
2024/01/08 01:53:26;;;;;;;9.07;5.20;;;;;;;;;;5008905;28;20191;-75
2024/01/08 01:55:53;;;;;;;11.47;5.50;;;;;;;;;;5002031;28;21283;-75
2024/01/08 01:58:19;;;;;;;9.23;5.67;;;;;;;;;;5008887;28;20190;-75
2024/01/08 02:00:45;;;;;;;9.83;5.30;;;;;;;;;;4997789;28;20195;-75
2024/01/08 02:03:11;;;;;;;9.77;5.30;;;;;;;;;;5008756;28;20677;-75
2024/01/08 02:05:37;;;;;;;8.83;5.30;;;;;;;;;;5022451;28;20203;-75
2024/01/08 02:08:03;;;;;;;9.63;5.23;;;;;;;;;;5015471;28;20203;-75
2024/01/08 02:10:29;;;;;;;10.17;5.30;;;;;;;;;;5003257;28;20214;-75
2024/01/08 02:12:55;;;;;;;9.13;4.87;;;;;;;;;;4989873;28;20237;-75
2024/01/08 02:15:20;;;;;;;8.97;4.27;;;;;;;;;;5021737;28;20186;-75
2024/01/08 02:17:46;;;;;;;8.07;3.77;;;;;;;;;;5004243;28;20309;-75
2024/01/08 02:20:11;;;;;;;6.60;3.90;;;;;;;;;;5009773;28;20189;-75
2024/01/08 02:22:43;;;;;;;5.33;3.27;;;;;;;;;;5018329;28;20190;-75
2024/01/08 02:25:10;;;;;;;7.60;4.07;;;;;;;;;;5026017;28;20186;-75
2024/01/08 02:27:36;;;;;;;8.83;4.33;;;;;;;;;;5020288;28;20217;-75
2024/01/08 02:30:01;;;;;;;10.17;4.33;;;;;;;;;;5025741;28;20189;-75
2024/01/08 02:32:26;;;;;;;6.70;3.40;;;;;;;;;;5024322;28;20181;-75
2024/01/08 02:34:52;;;;;;;7.47;3.70;;;;;;;;;;5018408;28;20182;-76
2024/01/08 02:37:17;;;;;;;8.07;4.00;;;;;;;;;;5010206;28;20247;-75
2024/01/08 02:39:43;;;;;;;9.30;3.60;;;;;;;;;;5028094;28;20190;-76
2024/01/08 02:42:08;;;;;;;8.67;3.97;;;;;;;;;;5011338;28;20585;-75
2024/01/08 02:44:33;;;;;;;8.33;3.67;;;;;;;;;;5028734;28;20186;-75
2024/01/08 02:46:59;;;;;;;7.90;4.27;;;;;;;;;;5011927;28;20205;-75
2024/01/08 02:49:27;;;;;;;9.03;4.40;;;;;;;;;;5010945;28;20642;-75
2024/01/08 02:51:52;;;;;;;6.93;3.90;;;;;;;;;;5027436;28;20197;-75
2024/01/08 02:54:17;;;;;;;6.40;3.90;;;;;;;;;;5011490;28;20186;-75
2024/01/08 02:56:43;;;;;;;11.83;5.10;;;;;;;;;;5019956;28;20197;-75
2024/01/08 02:59:08;;;;;;;9.07;4.23;;;;;;;;;;5026923;28;20559;-76
2024/01/08 03:01:34;;;;;;;10.17;4.57;;;;;;;;;;5032895;28;20749;-76
2024/01/08 03:03:59;;;;;;;9.80;4.80;;;;;;;;;;5010416;28;20186;-76
2024/01/08 03:06:24;;;;;;;8.83;4.60;;;;;;;;;;5022815;28;20317;-76
2024/01/08 03:08:50;;;;;;;10.87;4.43;;;;;;;;;;5025412;28;20198;-75
2024/01/08 03:11:16;;;;;;;10.20;4.37;;;;;;;;;;5025272;28;20225;-75
2024/01/08 03:13:41;;;;;;;9.40;4.87;;;;;;;;;;5018987;28;20201;-75
2024/01/08 03:16:07;;;;;;;8.80;4.30;;;;;;;;;;5009480;28;20197;-75
2024/01/08 03:18:33;;;;;;;9.97;4.40;;;;;;;;;;5007987;28;20602;-75
2024/01/08 03:20:58;;;;;;;8.30;4.47;;;;;;;;;;5029192;28;20233;-75
2024/01/08 03:23:24;;;;;;;7.23;4.13;;;;;;;;;;5022467;28;20221;-75
2024/01/08 03:25:49;;;;;;;8.20;3.70;;;;;;;;;;5005590;28;20206;-75
2024/01/08 03:28:14;;;;;;;10.33;5.70;;;;;;;;;;5009447;28;20679;-75
2024/01/08 03:30:41;;;;;;;9.83;4.83;;;;;;;;;;5026811;28;20193;-75
2024/01/08 03:33:07;;;;;;;14.73;6.07;;;;;;;;;;5011344;28;20178;-76
2024/01/08 03:35:32;;;;;;;9.07;4.70;;;;;;;;;;5010155;28;20193;-76
2024/01/08 03:37:58;;;;;;;9.00;4.73;;;;;;;;;;5007313;28;20588;-77
2024/01/08 03:40:23;;;;;;;8.67;4.37;;;;;;;;;;5025399;28;20688;-76
2024/01/08 03:42:48;;;;;;;11.60;5.37;;;;;;;;;;5017807;28;20300;-77
2024/01/08 03:45:14;;;;;;;9.53;5.17;;;;;;;;;;4996401;28;20193;-76
2024/01/08 03:47:39;;;;;;;13.13;5.30;;;;;;;;;;5008001;28;20222;-76
2024/01/08 03:50:06;;;;;;;12.73;6.20;;;;;;;;;;5011109;28;20209;-76
2024/01/08 03:52:32;;;;;;;13.33;5.73;;;;;;;;;;4992758;28;20317;-77
2024/01/08 03:54:57;;;;;;;12.20;5.77;;;;;;;;;;5023324;28;20289;-77
2024/01/08 03:57:23;;;;;;;10.93;5.37;;;;;;;;;;4988282;28;20574;-76
2024/01/08 03:59:49;;;;;;;10.50;5.10;;;;;;;;;;5011593;28;20201;-76
2024/01/08 04:02:14;;;;;;;10.70;4.63;;;;;;;;;;5010549;28;20644;-76
2024/01/08 04:04:42;;;;;;;10.50;5.57;;;;;;;;;;5009368;28;20208;-76
2024/01/08 04:07:09;;;;;;;13.00;5.60;;;;;;;;;;5011121;28;20202;-77
2024/01/08 04:09:34;;;;;;;11.77;4.93;;;;;;;;;;5008218;28;20319;-77
2024/01/08 04:12:00;;;;;;;11.80;5.80;;;;;;;;;;5002266;28;20712;-77
2024/01/08 04:14:25;;;;;;;13.87;5.50;;;;;;;;;;5015267;28;20181;-76
2024/01/08 04:16:51;;;;;;;11.60;5.63;;;;;;;;;;5016635;28;20174;-77
2024/01/08 04:19:16;;;;;;;10.30;5.30;;;;;;;;;;4999399;28;20240;-76
2024/01/08 04:21:41;;;;;;;10.77;5.13;;;;;;;;;;5011451;28;20252;-76
2024/01/08 04:24:07;;;;;;;10.67;4.83;;;;;;;;;;5029061;28;20193;-77
2024/01/08 04:26:32;;;;;;;9.20;4.90;;;;;;;;;;5031593;28;20569;-77
2024/01/08 04:28:58;;;;;;;5.93;3.27;;;;;;;;;;5011955;28;20689;-77
2024/01/08 04:31:23;;;;;;;12.50;5.80;;;;;;;;;;5015645;28;20270;-77
2024/01/08 04:33:49;;;;;;;10.50;5.47;;;;;;;;;;5015008;28;20182;-76
2024/01/08 04:36:15;;;;;;;11.40;5.07;;;;;;;;;;5043588;28;20616;-77
2024/01/08 04:38:41;;;;;;;10.10;4.90;;;;;;;;;;5019691;28;20261;-77
2024/01/08 04:41:07;;;;;;;9.37;4.70;;;;;;;;;;5029500;28;20182;-75
2024/01/08 04:43:32;;;;;;;10.17;4.70;;;;;;;;;;5011765;28;20454;-77
2024/01/08 04:45:58;;;;;;;7.87;4.13;;;;;;;;;;5031055;28;20191;-74
2024/01/08 04:48:23;;;;;;;10.17;4.70;;;;;;;;;;5028760;28;20281;-76
2024/01/08 04:50:48;;;;;;;12.67;5.07;;;;;;;;;;5031253;28;20214;-77
2024/01/08 04:53:14;;;;;;;8.93;4.40;;;;;;;;;;5028441;28;20192;-77
2024/01/08 04:55:39;;;;;;;10.53;5.17;;;;;;;;;;4978833;28;20533;-77
2024/01/08 04:58:08;;;;;;;11.33;5.37;;;;;;;;;;5024297;28;20183;-77
2024/01/08 05:00:34;;;;;;;8.43;4.73;;;;;;;;;;5012891;28;20209;-76
2024/01/08 05:02:59;;;;;;;8.93;4.60;;;;;;;;;;5012921;28;20603;-76
2024/01/08 05:05:24;;;;;;;8.83;4.70;;;;;;;;;;5018608;28;20562;-77
2024/01/08 05:07:50;;;;;;;8.13;4.67;;;;;;;;;;5015914;28;20420;-77
2024/01/08 05:10:15;;;;;;;10.53;4.10;;;;;;;;;;5028348;28;20557;-76
2024/01/08 05:12:41;;;;;;;10.10;4.90;;;;;;;;;;5013134;28;20198;-77
2024/01/08 05:15:06;;;;;;;10.27;4.37;;;;;;;;;;5020159;28;20282;-77
2024/01/08 05:17:32;;;;;;;7.90;4.43;;;;;;;;;;5013182;28;20182;-76
2024/01/08 05:19:57;;;;;;;9.37;5.00;;;;;;;;;;5008746;28;20220;-76
2024/01/08 05:22:23;;;;;;;9.37;4.53;;;;;;;;;;5012779;28;20233;-76
2024/01/08 05:24:48;;;;;;;8.43;4.53;;;;;;;;;;5011087;28;20190;-76
2024/01/08 05:27:14;;;;;;;10.40;4.47;;;;;;;;;;5015106;28;20233;-77
2024/01/08 05:29:39;;;;;;;6.83;3.57;;;;;;;;;;5011620;28;20604;-76
2024/01/08 05:32:05;;;;;;;12.33;4.50;;;;;;;;;;5013523;28;20186;-76
2024/01/08 05:34:31;;;;;;;5.67;3.23;;;;;;;;;;5008821;28;20289;-76
2024/01/08 05:36:57;;;;;;;8.80;4.10;;;;;;;;;;5025974;28;20630;-76
2024/01/08 05:39:22;;;;;;;6.40;3.80;;;;;;;;;;5029967;28;20198;-76
2024/01/08 05:41:48;;;;;;;9.30;4.07;;;;;;;;;;5007189;28;20198;-76
2024/01/08 05:44:13;;;;;;;7.73;3.87;;;;;;;;;;5007104;28;20228;-76
2024/01/08 05:46:42;;;;;;;8.23;3.97;;;;;;;;;;5029060;28;20670;-75
2024/01/08 05:49:07;;;;;;;10.70;4.30;;;;;;;;;;5030035;28;20273;-76
2024/01/08 05:51:33;;;;;;;4.93;2.83;;;;;;;;;;5017872;28;20198;-75
2024/01/08 05:53:58;;;;;;;6.83;3.60;;;;;;;;;;5029038;28;20187;-76
2024/01/08 05:56:24;;;;;;;8.60;3.47;;;;;;;;;;5013375;28;20642;-76
2024/01/08 05:58:49;;;;;;;8.20;4.73;;;;;;;;;;5030736;28;20208;-77
2024/01/08 06:01:15;;;;;;;8.20;3.87;;;;;;;;;;5023748;28;20232;-77
2024/01/08 06:03:40;;;;;;;8.03;3.63;;;;;;;;;;5012433;28;20709;-76
2024/01/08 06:06:06;;;;;;;8.57;4.47;;;;;;;;;;5013380;28;20210;-76
2024/01/08 06:08:31;;;;;;;7.50;3.97;;;;;;;;;;4996807;28;20563;-77
2024/01/08 06:10:57;;;;;;;9.47;3.60;;;;;;;;;;5020007;28;20217;-76
2024/01/08 06:13:22;;;;;;;8.43;4.03;;;;;;;;;;4994063;28;20183;-76
2024/01/08 06:15:48;;;;;;;7.77;5.00;;;;;;;;;;5010854;28;20253;-76
2024/01/08 06:18:14;;;;;;;8.83;3.63;;;;;;;;;;5010785;28;20210;-77
2024/01/08 06:20:39;;;;;;;7.00;3.90;;;;;;;;;;5031281;28;20802;-77
2024/01/08 06:23:05;;;;;;;8.33;3.60;;;;;;;;;;5013311;28;20201;-76
2024/01/08 06:25:30;;;;;;;6.30;3.77;;;;;;;;;;5012747;28;20681;-76
2024/01/08 06:27:55;;;;;;;5.63;3.73;;;;;;;;;;5009292;28;20201;-76
2024/01/08 06:30:21;;;;;;;6.60;3.50;;;;;;;;;;5009720;28;20254;-77
2024/01/08 06:32:46;;;;;;;9.47;3.87;;;;;;;;;;5027094;28;20190;-76
2024/01/08 06:35:12;;;;;;;6.43;3.90;;;;;;;;;;5028925;28;20198;-77
2024/01/08 06:37:37;;;;;;;7.43;3.37;;;;;;;;;;5027855;28;20194;-75
2024/01/08 06:40:03;;;;;;;8.53;4.50;;;;;;;;;;4987489;28;20210;-77
2024/01/08 06:42:29;;;;;;;6.93;3.60;;;;;;;;;;5011812;28;20179;-77
2024/01/08 06:44:54;;;;;;;8.27;3.90;;;;;;;;;;5021364;28;20192;-77
2024/01/08 06:47:20;;;;;;;6.57;3.60;;;;;;;;;;5030477;28;20206;-77
2024/01/08 06:49:45;;;;;;;8.23;3.83;;;;;;;;;;4995612;28;20195;-77
2024/01/08 06:52:11;;;;;;;8.13;3.83;;;;;;;;;;5012813;28;20646;-77
2024/01/08 06:54:38;;;;;;;8.47;3.67;;;;;;;;;;5010411;28;20271;-76
2024/01/08 06:57:03;;;;;;;8.73;3.87;;;;;;;;;;5008167;28;20670;-77
2024/01/08 06:59:29;;;;;;;8.80;3.77;;;;;;;;;;4993122;28;20406;-77
2024/01/08 07:01:54;;;;;;;8.47;4.10;;;;;;;;;;5023900;28;20274;-76
2024/01/08 07:04:20;;;;;;;8.60;4.10;;;;;;;;;;5009601;28;20209;-76
2024/01/08 07:06:45;;;;;;;7.90;4.20;;;;;;;;;;5029414;28;20221;-76
2024/01/08 07:09:11;;;;;;;10.40;4.47;;;;;;;;;;5011709;28;20229;-76
2024/01/08 07:11:36;;;;;;;11.37;4.30;;;;;;;;;;5028436;28;20559;-76
2024/01/08 07:14:02;;;;;;;8.00;4.03;;;;;;;;;;5006008;28;20744;-76
2024/01/08 07:16:28;;;;;;;5.93;3.83;;;;;;;;;;5027893;28;20505;-76
2024/01/08 07:18:54;;;;;;;8.17;4.03;;;;;;;;;;5009418;28;20220;-76
2024/01/08 07:21:20;;;;;;;6.43;4.17;;;;;;;;;;5023760;28;20627;-77
2024/01/08 07:23:48;;;;;;;7.30;3.97;;;;;;;;;;5016309;28;20196;-75
2024/01/08 07:26:14;;;;;;;10.27;4.33;;;;;;;;;;5014802;28;20305;-76
2024/01/08 07:28:42;;;;;;;10.27;4.63;;;;;;;;;;5034912;28;20690;-76
2024/01/08 07:31:08;;;;;;;10.07;4.40;;;;;;;;;;5020167;28;20212;-76
2024/01/08 07:33:34;;;;;;;7.73;4.67;;;;;;;;;;5006767;28;20195;-76
2024/01/08 07:35:59;;;;;;;8.90;4.53;;;;;;;;;;5008383;28;20190;-76
2024/01/08 07:38:27;;;;;;;7.70;4.30;;;;;;;;;;5009118;28;20316;-76
2024/01/08 07:40:53;;;;;;;7.60;4.07;;;;;;;;;;5009943;28;20231;-77
2024/01/08 07:43:18;;;;;;;9.33;4.30;;;;;;;;;;5029875;28;20568;-77
2024/01/08 07:45:43;;;;;;;8.47;4.43;;;;;;;;;;5029511;28;20676;-77
2024/01/08 07:48:09;;;;;;;7.73;3.87;;;;;;;;;;5016986;28;20288;-77
2024/01/08 07:50:34;;;;;;;8.43;4.37;;;;;;;;;;5033567;28;20193;-77
2024/01/08 07:53:00;;;;;;;10.53;4.70;;;;;;;;;;5014499;28;20190;-76
2024/01/08 07:55:25;;;;;;;9.63;3.97;;;;;;;;;;5031844;28;20191;-77
2024/01/08 07:57:51;;;;;;;11.03;5.20;;;;;;;;;;5029791;28;20198;-76
2024/01/08 08:00:16;;;;;;;9.27;4.33;;;;;;;;;;5034836;28;20200;-77
2024/01/08 08:02:42;;;;;;;13.27;4.07;;;;;;;;;;5011353;28;20209;-77
2024/01/08 08:05:07;;;;;;;7.30;4.27;;;;;;;;;;5030362;28;20182;-77
2024/01/08 08:07:33;;;;;;;6.33;3.83;;;;;;;;;;5034941;28;20420;-77
2024/01/08 08:09:58;;;;;;;8.03;4.30;;;;;;;;;;5022290;28;20185;-77
2024/01/08 08:12:24;;;;;;;7.47;4.27;;;;;;;;;;5000087;28;20190;-76
2024/01/08 08:14:49;;;;;;;8.60;4.13;;;;;;;;;;5032791;28;20280;-76
2024/01/08 08:17:15;;;;;;;11.40;4.50;;;;;;;;;;5025480;28;20222;-77
2024/01/08 08:19:44;;;;;;;8.37;3.90;;;;;;;;;;5018582;28;20214;-77
2024/01/08 08:22:14;;;;;;;6.90;3.87;;;;;;;;;;5011324;28;20567;-76
2024/01/08 08:24:40;;;;;;;9.37;4.30;;;;;;;;;;5012776;28;20272;-76
2024/01/08 08:27:10;;;;;;;8.70;4.40;;;;;;;;;;5011678;28;20211;-76
2024/01/08 08:29:41;;;;;;;9.60;4.60;;;;;;;;;;5009285;28;20183;-76
2024/01/08 08:32:07;;;;;;;7.37;4.17;;;;;;;;;;5008004;28;20187;-76
2024/01/08 08:34:33;;;;;;;6.83;3.53;;;;;;;;;;5028515;28;20190;-76
2024/01/08 08:36:58;;;;;;;8.70;4.33;;;;;;;;;;5014873;28;20511;-76
2024/01/08 08:39:24;;;;;;;6.47;3.97;;;;;;;;;;5015807;28;20265;-76
2024/01/08 08:41:49;;;;;;;10.27;4.50;;;;;;;;;;5005024;28;20644;-76
2024/01/08 08:44:15;;;;;;;7.13;4.20;;;;;;;;;;5011547;28;20186;-76
2024/01/08 08:46:40;;;;;;;7.93;4.13;;;;;;;;;;5006790;28;20211;-76
2024/01/08 08:49:06;;;;;;;7.57;4.30;;;;;;;;;;5009034;28;20194;-76
2024/01/08 08:51:35;;;;;;;10.03;4.27;;;;;;;;;;5004824;28;20354;-77
2024/01/08 08:54:04;;;;;;;5.80;3.80;;;;;;;;;;4987700;28;20230;-77
2024/01/08 08:56:36;;;;;;;7.40;3.90;;;;;;;;;;5018468;28;20645;-76
2024/01/08 08:59:02;;;;;;;7.60;3.87;;;;;;;;;;5009465;28;20692;-76
2024/01/08 09:01:28;;;;;;;9.53;4.20;;;;;;;;;;5011764;28;20187;-76
2024/01/08 09:03:54;;;;;;;10.00;4.40;;;;;;;;;;5011727;28;20197;-77
2024/01/08 09:06:20;;;;;;;9.03;3.50;;;;;;;;;;5011254;28;20210;-76
2024/01/08 09:08:53;;;;;;;7.73;3.67;;;;;;;;;;5011165;28;20187;-77
2024/01/08 09:11:19;;;;;;;8.77;4.13;;;;;;;;;;5005876;28;20186;-76
2024/01/08 09:13:44;;;;;;;7.77;4.10;;;;;;;;;;5007532;28;20197;-76
2024/01/08 09:16:10;;;;;;;6.47;3.90;;;;;;;;;;5009672;28;20183;-76
2024/01/08 09:18:36;;;;;;;7.47;4.00;;;;;;;;;;5014492;28;20242;-76
2024/01/08 09:21:02;;;;;;;6.10;3.80;;;;;;;;;;5017159;28;20241;-76
2024/01/08 09:23:27;;;;;;;9.30;4.33;;;;;;;;;;5029951;28;20233;-76
2024/01/08 09:25:52;;;;;;;7.77;4.00;;;;;;;;;;5012001;28;20677;-76
2024/01/08 09:28:18;;;;;;;7.67;4.10;;;;;;;;;;5030432;28;20266;-78
2024/01/08 09:30:43;;;;;;;13.87;4.80;;;;;;;;;;5026715;28;20190;-75
2024/01/08 09:33:09;;;;;;;6.40;3.33;;;;;;;;;;5023095;28;20186;-76
2024/01/08 09:35:35;;;;;;;10.30;3.90;;;;;;;;;;5011422;28;20549;-76
2024/01/08 09:38:00;;;;;;;6.53;4.23;;;;;;;;;;5029821;28;20186;-76
2024/01/08 09:40:25;;;;;;;6.40;3.67;;;;;;;;;;5019953;28;20236;-76
2024/01/08 09:42:55;;;;;;;7.17;3.83;;;;;;;;;;5012079;28;20194;-76
2024/01/08 09:45:26;;;;;;;11.07;4.03;;;;;;;;;;5005493;28;20668;-76
2024/01/08 09:47:53;;;;;;;7.27;3.70;;;;;;;;;;5023689;28;20549;-76
2024/01/08 09:50:19;;;;;;;7.03;4.03;;;;;;;;;;5012174;28;20189;-77
2024/01/08 09:52:46;;;;;;;7.80;4.27;;;;;;;;;;5013082;28;20186;-76
2024/01/08 09:55:12;;;;;;;7.07;3.67;;;;;;;;;;5029976;28;20189;-75
2024/01/08 09:57:38;;;;;;;13.80;4.30;;;;;;;;;;5030316;28;20197;-77
2024/01/08 10:00:05;;;;;;;7.47;3.70;;;;;;;;;;5013227;28;20689;-77
2024/01/08 10:02:31;;;;;;;6.07;3.50;;;;;;;;;;5027558;28;20185;-77
2024/01/08 10:04:57;;;;;;;4.83;3.50;;;;;;;;;;4999859;28;20553;-77
2024/01/08 10:07:23;;;;;;;5.07;3.23;;;;;;;;;;5009015;28;20229;-77
2024/01/08 10:09:50;;;;;;;7.67;3.77;;;;;;;;;;5003214;28;20204;-77
2024/01/08 10:12:16;;;;;;;10.47;3.80;;;;;;;;;;4337259;28;10000725;-76
2024/01/08 10:14:41;;;;;;;5.20;2.50;;;;;;;;;;5011423;28;20186;-77
2024/01/08 10:17:07;;;;;;;4.67;2.60;;;;;;;;;;5009372;28;20183;-76
2024/01/08 10:19:32;;;;;;;3.60;2.33;;;;;;;;;;5004338;28;20752;-76
2024/01/08 10:22:16;;;;;;;7.33;3.30;;;;;;;;;;5004537;28;20333;-76
2024/01/08 10:24:43;;;;;;;6.03;3.47;;;;;;;;;;5009044;28;20190;-76
2024/01/08 10:27:10;;;;;;;4.77;3.17;;;;;;;;;;5011908;28;20209;-76
2024/01/08 10:29:36;;;;;;;6.17;3.37;;;;;;;;;;5010965;28;20185;-77
2024/01/08 10:32:02;;;;;;;6.47;3.17;;;;;;;;;;5027468;28;20186;-77
2024/01/08 10:34:29;;;;;;;8.53;3.40;;;;;;;;;;5036689;28;20282;-77
2024/01/08 10:36:55;;;;;;;14.97;4.03;;;;;;;;;;5014539;28;20552;-77
2024/01/08 10:39:21;;;;;;;7.67;3.20;;;;;;;;;;5010389;28;20189;-78
2024/01/08 10:41:47;;;;;;;3.90;2.90;;;;;;;;;;5024719;28;20211;-77
2024/01/08 10:44:12;;;;;;;6.07;3.30;;;;;;;;;;5009129;28;20220;-78
2024/01/08 10:46:57;;;;;;;10.20;3.97;;;;;;;;;;5028658;28;20544;-78
2024/01/08 10:49:29;;;;;;;5.00;2.57;;;;;;;;;;5024816;28;20194;-78
2024/01/08 10:51:57;;;;;;;4.70;2.40;;;;;;;;;;5009392;28;20667;-78
2024/01/08 10:54:24;;;;;;;3.10;1.73;;;;;;;;;;5013714;28;20249;-78
2024/01/08 10:56:57;;;;;;;3.37;1.90;;;;;;;;;;5027307;28;20669;-77
2024/01/08 10:59:24;;;;;;;4.20;2.40;;;;;;;;;;5007385;28;20220;-78
2024/01/08 11:01:50;;;;;;;11.00;3.43;;;;;;;;;;5034002;28;20527;-78
2024/01/08 11:04:16;;;;;;;4.67;2.40;;;;;;;;;;5021289;28;20190;-79
2024/01/08 11:06:42;;;;;;;4.23;2.33;;;;;;;;;;5028181;28;20233;-78
2024/01/08 11:09:29;;;;;;;5.13;1.60;;;;;;;;;;5012901;28;20197;-78
2024/01/08 11:11:55;;;;;;;2.73;1.63;;;;;;;;;;4998379;28;20178;-77
2024/01/08 11:14:23;;;;;;;3.87;1.77;;;;;;;;;;5011802;28;20722;-78
2024/01/08 11:16:50;;;;;;;3.20;1.90;;;;;;;;;;5025787;28;20194;-78
2024/01/08 11:19:18;;;;;;;2.97;1.97;;;;;;;;;;5027459;28;20201;-77
2024/01/08 11:21:47;;;;;;;4.47;1.90;;;;;;;;;;5013303;28;20293;-78
2024/01/08 11:24:12;;;;;;;3.60;2.07;;;;;;;;;;4983357;28;20602;-78
2024/01/08 11:26:45;;;;;;;4.47;2.20;;;;;;;;;;5008373;28;20289;-77
2024/01/08 11:29:11;;;;;;;5.77;1.43;;;;;;;;;;5001634;28;20176;-77
2024/01/08 11:31:58;;;;;;;4.60;2.53;;;;;;;;;;5004776;28;20264;-77
2024/01/08 11:34:32;;;;;;;3.83;2.50;;;;;;;;;;5011948;28;20614;-77
2024/01/08 11:37:31;;;;;;;4.70;2.40;;;;;;;;;;5011675;28;20205;-78
2024/01/08 11:40:02;;;;;;;3.40;2.00;;;;;;;;;;5007469;28;20210;-78
2024/01/08 11:42:29;;;;;;;6.63;2.27;;;;;;;;;;4991171;28;20178;-77
2024/01/08 11:44:57;;;;;;;4.00;2.13;;;;;;;;;;5014895;28;20193;-77
2024/01/08 11:47:23;;;;;;;3.10;1.87;;;;;;;;;;5007550;28;20665;-77
2024/01/08 11:49:51;;;;;;;3.83;1.90;;;;;;;;;;5003855;28;20298;-77
2024/01/08 11:52:18;;;;;;;3.10;1.90;;;;;;;;;;5007975;28;20183;-77
2024/01/08 11:54:48;;;;;;;5.53;1.90;;;;;;;;;;4987803;28;20287;-76
2024/01/08 11:57:15;;;;;;;5.03;1.97;;;;;;;;;;4996144;28;20187;-77
2024/01/08 11:59:40;;;;;;;3.40;1.90;;;;;;;;;;5020469;28;20687;-76
2024/01/08 12:02:17;;;;;;;5.07;2.17;;;;;;;;;;5007736;28;20186;-76
2024/01/08 12:05:03;;;;;;;3.73;2.00;;;;;;;;;;5003401;28;20206;-76
2024/01/08 12:07:29;;;;;;;3.07;1.87;;;;;;;;;;5003873;28;20229;-76
2024/01/08 12:09:56;;;;;;;3.47;1.90;;;;;;;;;;5005711;28;20179;-76
2024/01/08 12:12:24;;;;;;;2.50;1.53;;;;;;;;;;5003782;28;20271;-76
2024/01/08 12:14:51;;;;;;;3.97;1.83;;;;;;;;;;5011700;28;20261;-76
2024/01/08 12:17:20;;;;;;;7.00;2.23;;;;;;;;;;4999833;28;20658;-76
2024/01/08 12:19:53;;;;;;;4.17;1.93;;;;;;;;;;5006522;28;20301;-76
2024/01/08 12:22:19;;;;;;;4.93;2.63;;;;;;;;;;5015633;28;20214;-76
2024/01/08 12:24:50;;;;;;;5.93;2.60;;;;;;;;;;5002770;28;20286;-77
2024/01/08 12:27:20;;;;;;;5.10;2.57;;;;;;;;;;5010165;28;20206;-75
2024/01/08 12:29:48;;;;;;;4.43;2.40;;;;;;;;;;5013471;28;20201;-76
2024/01/08 12:32:15;;;;;;;5.13;3.67;;;;;;;;;;5030550;28;20190;-76
2024/01/08 12:34:41;;;;;;;5.57;2.47;;;;;;;;;;5026927;28;20248;-76
2024/01/08 12:37:08;;;;;;;3.13;2.00;;;;;;;;;;5026855;28;20222;-76
2024/01/08 12:39:34;;;;;;;4.17;1.90;;;;;;;;;;5028328;28;20195;-76
2024/01/08 12:42:19;;;;;;;3.90;2.30;;;;;;;;;;5010202;28;20186;-77
2024/01/08 12:44:47;;;;;;;5.67;2.63;;;;;;;;;;5027062;28;20182;-77
2024/01/08 12:47:13;;;;;;;4.30;2.60;;;;;;;;;;5013222;28;20348;-77
2024/01/08 12:49:38;;;;;;;4.73;2.27;;;;;;;;;;5025462;28;20273;-77
2024/01/08 12:52:04;;;;;;;4.17;2.60;;;;;;;;;;5012926;28;20213;-77
2024/01/08 12:54:31;;;;;;;5.53;2.93;;;;;;;;;;5026052;28;20209;-76
2024/01/08 12:56:57;;;;;;;5.37;2.43;;;;;;;;;;5011828;28;20634;-76
2024/01/08 12:59:24;;;;;;;5.10;2.53;;;;;;;;;;5025731;28;20209;-77
2024/01/08 13:01:53;;;;;;;6.90;2.47;;;;;;;;;;4995880;28;20190;-77
2024/01/08 13:04:21;;;;;;;5.10;2.47;;;;;;;;;;5023774;28;20546;-76
2024/01/08 13:06:47;;;;;;;3.57;2.33;;;;;;;;;;5025041;28;20579;-76
2024/01/08 13:09:28;;;;;;;5.58;2.44;;;;;;;;;;4849312;28;10001158;-78
2024/01/08 13:11:54;;;;;;;6.13;2.80;;;;;;;;;;5011275;28;20398;-77
2024/01/08 13:14:19;;;;;;;3.60;2.37;;;;;;;;;;5010899;28;20215;-77
2024/01/08 13:16:47;;;;;;;6.00;2.80;;;;;;;;;;4995987;28;20583;-77
2024/01/08 13:19:12;;;;;;;5.53;2.50;;;;;;;;;;5026949;28;20221;-76
2024/01/08 13:21:42;;;;;;;5.63;2.80;;;;;;;;;;5020783;28;20234;-76
2024/01/08 13:24:10;;;;;;;5.53;2.33;;;;;;;;;;5020785;28;20333;-77
2024/01/08 13:26:38;;;;;;;5.13;2.33;;;;;;;;;;4993694;28;20578;-76
2024/01/08 13:29:05;;;;;;;5.23;1.97;;;;;;;;;;5010351;28;20269;-77
2024/01/08 13:31:35;;;;;;;5.27;2.10;;;;;;;;;;5038493;28;20193;-76
2024/01/08 13:34:05;;;;;;;5.53;2.40;;;;;;;;;;5022415;28;20333;-76
2024/01/08 13:36:31;;;;;;;5.53;2.30;;;;;;;;;;4995295;28;20236;-76
2024/01/08 13:38:58;;;;;;;8.50;2.37;;;;;;;;;;5028321;28;20704;-76
2024/01/08 13:41:24;;;;;;;4.93;2.37;;;;;;;;;;5040147;28;20250;-77
2024/01/08 13:43:50;;;;;;;5.67;1.63;;;;;;;;;;5028121;28;20205;-76
2024/01/08 13:46:15;;;;;;;4.33;2.50;;;;;;;;;;5022559;28;20222;-77
2024/01/08 13:48:41;;;;;;;4.93;2.37;;;;;;;;;;5006246;28;20202;-77
2024/01/08 13:51:09;;;;;;;3.93;2.13;;;;;;;;;;4990024;28;20320;-76
2024/01/08 13:53:36;;;;;;;7.50;2.40;;;;;;;;;;5010369;28;20606;-77
2024/01/08 13:56:03;;;;;;;3.13;1.93;;;;;;;;;;5003718;28;20210;-77
2024/01/08 13:58:29;;;;;;;3.13;1.93;;;;;;;;;;5018839;28;20564;-77
2024/01/08 14:00:55;;;;;;;15.60;2.60;;;;;;;;;;5024474;28;20539;-77
2024/01/08 14:03:20;;;;;;;3.97;2.03;;;;;;;;;;4990438;28;20183;-78
2024/01/08 14:05:46;;;;;;;4.23;2.30;;;;;;;;;;5010559;28;20253;-77
2024/01/08 14:08:11;;;;;;;6.30;3.37;;;;;;;;;;5024610;28;20209;-77
2024/01/08 14:10:38;;;;;;;4.20;2.30;;;;;;;;;;5020310;28;20259;-77
2024/01/08 14:13:04;;;;;;;4.27;1.77;;;;;;;;;;5025884;28;20221;-76
2024/01/08 14:15:30;;;;;;;4.13;2.13;;;;;;;;;;5019122;28;20571;-77
2024/01/08 14:17:57;;;;;;;5.07;2.73;;;;;;;;;;4999396;28;20205;-77
2024/01/08 14:20:22;;;;;;;5.23;2.67;;;;;;;;;;5013648;28;20191;-77
2024/01/08 14:22:48;;;;;;;4.97;2.40;;;;;;;;;;5011192;28;20249;-77
2024/01/08 14:25:16;;;;;;;4.13;2.33;;;;;;;;;;5016526;28;20209;-77
2024/01/08 14:27:41;;;;;;;6.60;2.73;;;;;;;;;;5011375;28;20198;-77
2024/01/08 14:30:07;;;;;;;5.20;2.10;;;;;;;;;;5029033;28;20527;-77
2024/01/08 14:32:33;;;;;;;6.50;2.57;;;;;;;;;;4993826;28;20279;-77
2024/01/08 14:34:59;;;;;;;5.10;2.47;;;;;;;;;;5026755;28;20197;-77
2024/01/08 14:37:26;;;;;;;4.67;2.50;;;;;;;;;;5026194;28;20193;-77